createdAt,value
2022-08-03T00:02:19.923Z,2.90
2022-08-03T00:04:47.897Z,2.80
2022-08-03T00:07:15.852Z,2.83
2022-08-03T00:09:43.817Z,2.80
2022-08-03T00:12:11.724Z,3.00
2022-08-03T00:14:39.614Z,2.70
2022-08-03T00:17:08.888Z,2.77
2022-08-03T00:19:36.848Z,3.27
2022-08-03T00:22:04.748Z,3.13
2022-08-03T00:24:32.580Z,3.00
2022-08-03T00:27:00.458Z,2.97
2022-08-03T00:29:28.482Z,3.03
2022-08-03T00:32:00.517Z,3.40
2022-08-03T00:34:57.216Z,3.37
2022-08-03T00:37:19.097Z,2.80
2022-08-03T00:39:48.024Z,3.43
2022-08-03T00:42:16.617Z,3.07
2022-08-03T00:44:45.652Z,3.90
2022-08-03T00:47:13.860Z,3.37
2022-08-03T00:49:43.656Z,3.60
2022-08-03T00:52:12.366Z,3.67
2022-08-03T00:54:41.014Z,3.73
2022-08-03T00:57:08.967Z,3.60
2022-08-03T00:59:38.164Z,3.40
2022-08-03T01:02:06.863Z,3.70
2022-08-03T01:04:34.823Z,3.43
2022-08-03T01:07:13.195Z,3.20
2022-08-03T01:09:47.779Z,3.20
2022-08-03T01:12:23.369Z,3.20
2022-08-03T01:14:56.253Z,3.97
2022-08-03T01:17:30.387Z,3.60
2022-08-03T01:20:03.669Z,3.60
2022-08-03T01:22:52.834Z,3.07
2022-08-03T01:25:34.186Z,3.90
2022-08-03T01:28:19.447Z,3.50
2022-08-03T01:30:49.634Z,3.33
2022-08-03T01:33:22.997Z,3.30
2022-08-03T01:35:59.986Z,3.00
2022-08-03T01:38:31.759Z,3.40
2022-08-03T01:41:04.951Z,3.60
2022-08-03T01:43:55.067Z,3.53
2022-08-03T01:46:25.224Z,3.43
2022-08-03T01:48:54.077Z,3.60
2022-08-03T01:51:23.364Z,3.70
2022-08-03T01:53:54.723Z,3.83
2022-08-03T01:56:25.591Z,4.10
2022-08-03T01:58:54.835Z,3.93
2022-08-03T02:01:26.516Z,3.90
2022-08-03T02:04:15.537Z,3.83
2022-08-03T02:07:01.586Z,4.13
2022-08-03T02:09:32.309Z,4.13
2022-08-03T02:12:00.902Z,4.00
2022-08-03T02:14:29.535Z,4.33
2022-08-03T02:16:59.678Z,4.20
2022-08-03T02:19:32.447Z,4.30
2022-08-03T02:22:04.364Z,4.17
2022-08-03T02:24:33.393Z,3.60
2022-08-03T02:27:03.332Z,4.40
2022-08-03T02:29:38.703Z,4.03
2022-08-03T02:32:11.614Z,4.20
2022-08-03T02:34:41.775Z,4.37
2022-08-03T02:37:12.531Z,4.00
2022-08-03T02:39:42.734Z,3.83
2022-08-03T02:42:13.005Z,4.10
2022-08-03T02:44:47.675Z,3.70
2022-08-03T02:47:21.223Z,4.10
2022-08-03T02:49:52.420Z,3.93
2022-08-03T02:52:23.219Z,4.37
2022-08-03T02:54:54.753Z,3.93
2022-08-03T02:57:23.805Z,4.37
2022-08-03T02:59:54.020Z,3.93
2022-08-03T03:02:24.183Z,4.07
2022-08-03T03:05:52.106Z,4.10
2022-08-03T03:07:51.853Z,3.87
2022-08-03T03:10:21.586Z,4.10
2022-08-03T03:12:51.192Z,4.27
2022-08-03T03:15:19.455Z,3.80
2022-08-03T03:17:49.692Z,3.77
2022-08-03T03:20:29.143Z,4.20
2022-08-03T03:22:59.656Z,4.00
2022-08-03T03:25:28.931Z,3.87
2022-08-03T03:27:57.787Z,4.13
2022-08-03T03:30:26.406Z,4.07
2022-08-03T03:32:56.160Z,4.37
2022-08-03T03:35:24.338Z,3.83
2022-08-03T03:37:53.362Z,4.10
2022-08-03T03:40:22.668Z,4.03
2022-08-03T03:42:50.871Z,3.97
2022-08-03T03:45:19.656Z,4.17
2022-08-03T03:47:48.206Z,4.30
2022-08-03T03:50:19.904Z,4.27
2022-08-03T03:52:47.850Z,4.70
2022-08-03T03:55:19.192Z,4.20
2022-08-03T03:57:47.075Z,4.50
2022-08-03T04:00:16.693Z,3.53
2022-08-03T04:02:45.176Z,3.93
2022-08-03T04:05:31.032Z,3.80
2022-08-03T04:08:21.735Z,3.60
2022-08-03T04:11:00.763Z,4.43
2022-08-03T04:13:32.869Z,4.73
2022-08-03T04:16:01.797Z,4.17
2022-08-03T04:18:32.407Z,3.70
2022-08-03T04:21:03.589Z,4.20
2022-08-03T04:23:36.594Z,3.60
2022-08-03T04:26:06.490Z,3.70
2022-08-03T04:28:35.558Z,3.73
2022-08-03T04:31:05.301Z,3.63
2022-08-03T04:33:36.227Z,3.83
2022-08-03T04:36:08.124Z,3.60
2022-08-03T04:38:45.073Z,3.50
2022-08-03T04:41:13.896Z,3.37
2022-08-03T04:43:42.464Z,3.57
2022-08-03T04:46:11.630Z,3.37
2022-08-03T04:48:44.678Z,3.27
2022-08-03T04:51:14.241Z,3.40
2022-08-03T04:53:44.295Z,3.80
2022-08-03T04:56:12.424Z,3.20
2022-08-03T04:58:40.430Z,3.50
2022-08-03T05:01:08.679Z,3.40
2022-08-03T05:03:36.625Z,3.33
2022-08-03T05:06:09.757Z,3.30
2022-08-03T05:08:46.104Z,3.43
2022-08-03T05:11:17.177Z,3.37
2022-08-03T05:13:45.226Z,3.37
2022-08-03T05:16:14.187Z,3.23
2022-08-03T05:18:42.864Z,3.30
2022-08-03T05:21:10.881Z,3.47
2022-08-03T05:23:38.789Z,3.37
2022-08-03T05:26:06.760Z,3.43
2022-08-03T05:28:35.959Z,3.73
2022-08-03T05:31:03.826Z,3.23
2022-08-03T05:33:31.958Z,3.20
2022-08-03T05:36:04.267Z,3.00
2022-08-03T05:38:34.249Z,3.07
2022-08-03T05:41:22.813Z,3.90
2022-08-03T05:43:54.608Z,3.00
2022-08-03T05:46:23.287Z,3.10
2022-08-03T05:48:51.243Z,3.10
2022-08-03T05:51:19.259Z,3.20
2022-08-03T05:53:47.229Z,3.33
2022-08-03T05:56:16.646Z,2.70
2022-08-03T05:58:46.408Z,2.87
2022-08-03T06:01:16.328Z,2.97
2022-08-03T06:03:44.326Z,2.47
2022-08-03T06:06:12.518Z,2.50
2022-08-03T06:08:41.172Z,2.77
2022-08-03T06:11:09.659Z,2.83
2022-08-03T06:13:37.688Z,2.90
2022-08-03T06:16:06.295Z,2.80
2022-08-03T06:18:35.751Z,3.00
2022-08-03T06:21:14.110Z,2.60
2022-08-03T06:23:53.894Z,2.23
2022-08-03T06:26:28.073Z,3.07
2022-08-03T06:28:56.218Z,2.63
2022-08-03T06:31:26.214Z,2.43
2022-08-03T06:34:33.480Z,2.60
2022-08-03T06:36:52.620Z,2.80
2022-08-03T06:39:23.415Z,3.00
2022-08-03T06:41:53.151Z,2.70
2022-08-03T06:44:21.059Z,2.30
2022-08-03T06:46:48.971Z,2.50
2022-08-03T06:49:18.834Z,3.00
2022-08-03T06:52:05.785Z,2.23
2022-08-03T06:54:36.238Z,2.80
2022-08-03T06:57:04.784Z,2.90
2022-08-03T07:00:10.700Z,2.20
2022-08-03T07:02:20.706Z,2.63
2022-08-03T07:04:50.668Z,2.33
2022-08-03T07:07:19.288Z,2.50
2022-08-03T07:09:54.962Z,2.40
2022-08-03T07:12:27.439Z,2.40
2022-08-03T07:15:00.263Z,2.03
2022-08-03T07:17:30.279Z,1.90
2022-08-03T07:19:59.874Z,1.90
2022-08-03T07:22:28.314Z,2.00
2022-08-03T07:24:56.467Z,1.80
2022-08-03T07:27:24.423Z,2.30
2022-08-03T07:29:52.355Z,1.73
2022-08-03T07:32:20.299Z,2.00
2022-08-03T07:34:48.266Z,2.33
2022-08-03T07:37:17.742Z,2.20
2022-08-03T07:39:45.840Z,1.73
2022-08-03T07:42:13.974Z,2.33
2022-08-03T07:44:42.261Z,2.10
2022-08-03T07:47:10.157Z,2.13
2022-08-03T07:49:50.135Z,2.00
2022-08-03T07:52:37.139Z,2.10
2022-08-03T07:55:06.314Z,2.10
2022-08-03T07:57:34.304Z,2.10
2022-08-03T08:00:02.882Z,2.13
2022-08-03T08:02:40.136Z,2.20
2022-08-03T08:05:10.619Z,2.20
2022-08-03T08:07:40.717Z,2.43
2022-08-03T08:10:26.899Z,2.20
2022-08-03T08:12:55.507Z,2.20
2022-08-03T08:15:23.671Z,2.07
2022-08-03T08:17:53.522Z,2.43
2022-08-03T08:20:28.078Z,2.20
2022-08-03T08:23:01.506Z,2.37
2022-08-03T08:25:33.095Z,2.50
2022-08-03T08:28:22.220Z,2.37
2022-08-03T08:30:51.584Z,2.40
2022-08-03T08:33:23.213Z,2.30
2022-08-03T08:35:55.018Z,2.63
2022-08-03T08:38:23.598Z,2.60
2022-08-03T08:40:55.878Z,2.13
2022-08-03T08:43:23.797Z,2.40
2022-08-03T08:45:53.222Z,2.07
2022-08-03T08:48:25.376Z,2.30
2022-08-03T08:50:54.486Z,2.20
2022-08-03T08:53:27.218Z,2.03
2022-08-03T08:56:01.349Z,2.13
2022-08-03T08:58:31.686Z,2.30
2022-08-03T09:01:00.030Z,2.17
2022-08-03T09:03:30.126Z,2.40
2022-08-03T09:06:02.104Z,2.10
2022-08-03T09:08:30.476Z,1.93
2022-08-03T09:11:00.237Z,2.20
2022-08-03T09:13:29.165Z,2.00
2022-08-03T09:16:14.799Z,2.07
2022-08-03T09:18:43.794Z,2.20
2022-08-03T09:21:30.767Z,2.00
2022-08-03T09:24:03.310Z,2.20
2022-08-03T09:26:35.189Z,1.90
2022-08-03T09:29:09.545Z,2.13
2022-08-03T09:31:44.539Z,2.23
2022-08-03T09:34:15.251Z,2.00
2022-08-03T09:36:44.606Z,1.93
2022-08-03T09:39:13.974Z,1.90
2022-08-03T09:41:45.320Z,2.03
2022-08-03T09:44:24.129Z,1.97
2022-08-03T09:46:56.961Z,2.17
2022-08-03T09:49:25.791Z,2.17
2022-08-03T09:52:32.566Z,2.50
2022-08-03T09:54:43.982Z,3.07
2022-08-03T09:57:23.706Z,2.50
2022-08-03T09:59:55.006Z,2.87
2022-08-03T10:02:40.959Z,2.13
2022-08-03T10:05:10.710Z,2.27
2022-08-03T10:07:49.633Z,2.20
2022-08-03T10:10:28.959Z,1.97
2022-08-03T10:13:02.222Z,2.00
2022-08-03T10:16:23.784Z,2.50
2022-08-03T10:18:18.798Z,2.60
2022-08-03T10:20:52.574Z,2.60
2022-08-03T10:23:22.360Z,2.60
2022-08-03T10:25:55.633Z,2.23
2022-08-03T10:28:25.588Z,1.80
2022-08-03T10:30:55.931Z,2.10
2022-08-03T10:33:49.472Z,2.10
2022-08-03T10:36:18.214Z,1.93
2022-08-03T10:38:52.657Z,2.60
2022-08-03T10:41:22.003Z,2.20
2022-08-03T10:43:57.469Z,1.90
2022-08-03T10:46:26.895Z,1.93
2022-08-03T10:48:56.565Z,1.97
2022-08-03T10:51:25.320Z,1.63
2022-08-03T10:53:55.335Z,2.23
2022-08-03T10:57:13.409Z,1.90
2022-08-03T11:00:04.691Z,1.90
2022-08-03T11:03:08.620Z,2.10
2022-08-03T11:05:39.569Z,1.83
2022-08-03T11:08:31.795Z,1.93
2022-08-03T11:11:02.307Z,1.83
2022-08-03T11:13:33.441Z,2.17
2022-08-03T11:16:21.994Z,1.80
2022-08-03T11:18:57.734Z,1.90
2022-08-03T11:21:56.869Z,1.87
2022-08-03T11:25:02.094Z,2.10
2022-08-03T11:27:32.840Z,1.97
2022-08-03T11:30:03.440Z,1.70
2022-08-03T11:32:54.323Z,1.90
2022-08-03T11:35:24.312Z,1.77
2022-08-03T11:38:10.284Z,1.70
2022-08-03T11:40:40.904Z,1.90
2022-08-03T11:43:10.198Z,1.60
2022-08-03T11:45:38.874Z,1.80
2022-08-03T11:48:18.195Z,1.90
2022-08-03T11:50:46.328Z,1.70
2022-08-03T11:53:17.111Z,1.80
2022-08-03T11:55:48.742Z,2.00
2022-08-03T11:58:58.106Z,1.60
2022-08-03T12:01:11.414Z,1.87
2022-08-03T12:03:40.668Z,1.70
2022-08-03T12:06:11.540Z,1.87
2022-08-03T12:08:40.555Z,2.03
2022-08-03T12:11:10.860Z,1.90
2022-08-03T12:14:43.822Z,1.70
2022-08-03T12:16:29.607Z,1.57
2022-08-03T12:19:01.236Z,1.70
2022-08-03T12:21:29.962Z,1.40
2022-08-03T12:24:00.385Z,1.90
2022-08-03T12:26:29.931Z,1.70
2022-08-03T12:28:58.398Z,1.60
2022-08-03T12:31:26.616Z,1.80
2022-08-03T12:34:01.819Z,1.80
2022-08-03T12:36:31.386Z,1.77
2022-08-03T12:39:01.510Z,1.83
2022-08-03T12:41:31.278Z,1.50
2022-08-03T12:43:59.783Z,1.67
2022-08-03T12:46:32.908Z,1.77
2022-08-03T12:49:08.685Z,1.90
2022-08-03T12:51:38.565Z,1.60
2022-08-03T12:54:07.191Z,1.70
2022-08-03T12:56:35.353Z,1.80
2022-08-03T12:59:32.488Z,1.70
2022-08-03T13:02:04.553Z,1.60
2022-08-03T13:04:38.608Z,1.90
2022-08-03T13:07:14.091Z,1.83
2022-08-03T13:09:43.773Z,2.00
2022-08-03T13:12:13.296Z,1.73
2022-08-03T13:14:41.287Z,1.73
2022-08-03T13:17:09.880Z,1.70
2022-08-03T13:19:40.123Z,2.20
2022-08-03T13:22:15.257Z,1.90
2022-08-03T13:24:45.689Z,1.70
2022-08-03T13:27:30.858Z,1.70
2022-08-03T13:30:02.191Z,1.88
2022-08-03T13:32:30.126Z,1.90
2022-08-03T13:34:59.416Z,1.33
2022-08-03T13:37:27.791Z,1.75
2022-08-03T13:39:59.465Z,2.13
2022-08-03T13:42:31.008Z,1.63
2022-08-03T13:44:59.425Z,1.75
2022-08-03T13:47:27.416Z,1.63
2022-08-03T13:50:01.424Z,1.90
2022-08-03T13:52:32.688Z,1.70
2022-08-03T13:55:00.856Z,1.77
2022-08-03T13:58:04.320Z,1.63
2022-08-03T14:00:28.141Z,1.70
2022-08-03T14:03:06.683Z,1.70
2022-08-03T14:05:40.806Z,1.60
2022-08-03T14:08:10.753Z,1.40
2022-08-03T14:10:40.992Z,1.58
2022-08-03T14:13:09.970Z,1.80
2022-08-03T14:15:38.783Z,1.60
2022-08-03T14:18:15.830Z,1.60
2022-08-03T14:20:57.319Z,1.83
2022-08-03T14:23:28.062Z,1.90
2022-08-03T14:25:56.034Z,1.70
2022-08-03T14:28:25.379Z,1.50
2022-08-03T14:30:54.568Z,1.50
2022-08-03T14:33:22.897Z,1.42
2022-08-03T14:35:51.629Z,1.40
2022-08-03T14:38:20.034Z,1.40
2022-08-03T14:40:49.870Z,1.52
2022-08-03T14:43:20.186Z,1.75
2022-08-03T14:45:48.529Z,1.75
2022-08-03T14:50:30.827Z,1.50
2022-08-03T14:51:05.506Z,1.80
2022-08-03T14:53:34.807Z,1.60
2022-08-03T14:56:09.435Z,1.65
2022-08-03T14:58:38.381Z,1.88
2022-08-03T15:02:02.651Z,1.70
2022-08-03T15:03:55.299Z,1.50
2022-08-03T15:06:26.230Z,1.48
2022-08-03T15:09:21.124Z,1.50
2022-08-03T15:11:46.971Z,1.45
2022-08-03T15:14:14.965Z,1.50
2022-08-03T15:16:43.506Z,1.60
2022-08-03T15:20:01.029Z,1.55
2022-08-03T15:22:00.993Z,1.40
2022-08-03T15:24:29.220Z,1.30
2022-08-03T15:26:58.552Z,1.30
2022-08-03T15:30:05.187Z,1.40
2022-08-03T15:32:14.746Z,1.60
2022-08-03T15:34:50.754Z,1.65
2022-08-03T15:37:19.954Z,1.80
2022-08-03T15:39:59.938Z,1.45
2022-08-03T15:42:31.014Z,1.50
2022-08-03T15:44:59.248Z,1.67
2022-08-03T15:47:27.771Z,1.73
2022-08-03T15:49:55.637Z,1.55
2022-08-03T15:52:23.573Z,1.25
2022-08-03T15:54:51.667Z,1.80
2022-08-03T15:57:19.802Z,1.40
2022-08-03T15:59:49.351Z,1.70
2022-08-03T16:02:17.806Z,1.38
2022-08-03T16:04:45.701Z,1.38
2022-08-03T16:07:15.524Z,1.30
2022-08-03T16:09:44.225Z,1.58
2022-08-03T16:12:15.665Z,1.80
2022-08-03T16:14:53.796Z,1.40
2022-08-03T16:17:24.478Z,1.20
2022-08-03T16:19:54.901Z,1.50
2022-08-03T16:22:41.193Z,1.38
2022-08-03T16:25:16.105Z,1.40
2022-08-03T16:28:00.595Z,1.60
2022-08-03T16:30:32.771Z,1.40
2022-08-03T16:33:02.403Z,1.30
2022-08-03T16:35:30.631Z,1.33
2022-08-03T16:37:58.895Z,1.52
2022-08-03T16:40:27.393Z,1.70
2022-08-03T16:42:55.469Z,1.30
2022-08-03T16:45:23.607Z,1.60
2022-08-03T16:48:01.449Z,1.30
2022-08-03T16:50:35.361Z,1.37
2022-08-03T16:53:09.152Z,1.50
2022-08-03T16:55:43.358Z,1.17
2022-08-03T16:58:34.585Z,1.40
2022-08-03T17:01:20.896Z,1.50
2022-08-03T17:04:02.503Z,1.63
2022-08-03T17:06:36.410Z,1.23
2022-08-03T17:09:09.238Z,1.37
2022-08-03T17:11:43.970Z,1.60
2022-08-03T17:14:16.268Z,1.40
2022-08-03T17:16:52.922Z,1.57
2022-08-03T17:19:24.604Z,1.27
2022-08-03T17:22:01.188Z,1.40
2022-08-03T17:24:33.504Z,1.27
2022-08-03T17:27:08.966Z,1.30
2022-08-03T17:29:45.187Z,1.30
2022-08-03T17:32:18.169Z,1.20
2022-08-03T17:34:49.958Z,1.20
2022-08-03T17:37:50.715Z,1.30
2022-08-03T17:40:17.960Z,1.53
2022-08-03T17:42:50.680Z,1.40
2022-08-03T17:45:19.961Z,1.60
2022-08-03T17:47:57.089Z,1.40
2022-08-03T17:50:33.578Z,1.47
2022-08-03T17:53:24.041Z,1.40
2022-08-03T17:56:04.172Z,1.57
2022-08-03T17:58:43.568Z,1.53
2022-08-03T18:02:00.420Z,1.43
2022-08-03T18:04:30.116Z,1.40
2022-08-03T18:07:11.061Z,1.27
2022-08-03T18:10:03.451Z,1.40
2022-08-03T18:12:51.632Z,1.60
2022-08-03T18:15:27.811Z,1.30
2022-08-03T18:18:02.459Z,1.20
2022-08-03T18:20:41.005Z,1.23
2022-08-03T18:23:25.261Z,1.50
2022-08-03T18:26:02.518Z,1.47
2022-08-03T18:28:40.626Z,1.60
2022-08-03T18:31:11.826Z,1.60
2022-08-03T18:34:19.465Z,1.53
2022-08-03T18:36:31.176Z,1.50
2022-08-03T18:39:02.378Z,1.40
2022-08-03T18:41:35.390Z,1.50
2022-08-03T18:44:37.517Z,1.50
2022-08-03T18:47:16.122Z,1.63
2022-08-03T18:49:56.715Z,1.40
2022-08-03T18:52:34.613Z,1.63
2022-08-03T18:55:21.553Z,1.40
2022-08-03T18:58:15.786Z,1.50
2022-08-03T19:00:54.792Z,1.63
2022-08-03T19:06:20.388Z,1.90
2022-08-03T19:08:55.824Z,1.50
2022-08-03T19:12:14.101Z,1.60
2022-08-03T19:14:28.777Z,1.80
2022-08-03T19:17:05.399Z,1.70
2022-08-03T19:19:44.490Z,1.70
2022-08-03T19:25:02.590Z,1.57
2022-08-03T19:27:31.718Z,1.70
2022-08-03T19:30:11.906Z,1.83
2022-08-03T19:32:51.173Z,1.50
2022-08-03T19:35:46.471Z,1.90
2022-08-03T19:38:29.254Z,1.93
2022-08-03T19:41:02.224Z,1.80
2022-08-03T19:43:52.960Z,1.80
2022-08-03T19:46:30.138Z,1.87
2022-08-03T19:49:02.136Z,1.80
2022-08-03T19:52:00.997Z,1.97
2022-08-03T19:54:29.751Z,1.97
2022-08-03T19:57:01.887Z,1.83
2022-08-03T20:02:34.189Z,1.70
2022-08-03T20:05:02.763Z,1.70
2022-08-03T20:07:32.812Z,1.70
2022-08-03T20:10:02.379Z,1.70
2022-08-03T20:12:38.614Z,1.80
2022-08-03T20:15:10.688Z,1.80
2022-08-03T20:17:55.501Z,2.10
2022-08-03T20:20:29.682Z,2.23
2022-08-03T20:23:06.955Z,2.07
2022-08-03T20:25:57.068Z,2.07
2022-08-03T20:28:33.612Z,2.53
2022-08-03T20:31:02.208Z,2.30
2022-08-03T20:33:48.505Z,1.90
2022-08-03T20:36:19.610Z,2.03
2022-08-03T20:38:51.985Z,2.20
2022-08-03T20:41:20.316Z,2.17
2022-08-03T20:43:49.510Z,1.97
2022-08-03T20:46:32.187Z,2.27
2022-08-03T20:49:07.943Z,2.20
2022-08-03T20:51:49.257Z,1.90
2022-08-03T20:54:29.594Z,2.13
2022-08-03T20:57:00.241Z,2.10
2022-08-03T21:02:29.782Z,2.30
2022-08-03T21:05:02.879Z,2.00
2022-08-03T21:08:04.478Z,2.40
2022-08-03T21:10:28.611Z,2.27
2022-08-03T21:13:01.259Z,1.60
2022-08-03T21:13:02.097Z,1.80
2022-08-03T21:13:11.193Z,1.80
2022-08-03T21:13:13.253Z,1.90
2022-08-03T21:13:14.997Z,2.03
2022-08-03T21:16:06.240Z,1.87
2022-08-03T21:18:36.451Z,2.43
2022-08-03T21:21:07.143Z,2.10
2022-08-03T21:23:45.538Z,2.30
2022-08-03T21:26:18.999Z,2.10
2022-08-03T21:28:47.928Z,2.40
2022-08-03T21:31:24.790Z,2.33
2022-08-03T21:33:59.372Z,2.47
2022-08-03T21:36:31.396Z,2.30
2022-08-03T21:38:59.950Z,1.97
2022-08-03T21:41:29.615Z,2.50
2022-08-03T21:43:58.318Z,2.50
2022-08-03T21:46:28.042Z,2.53
2022-08-03T21:50:05.805Z,2.30
2022-08-03T21:51:51.417Z,2.50
2022-08-03T21:54:21.645Z,2.30
2022-08-03T21:56:53.463Z,2.10
2022-08-03T21:59:24.011Z,2.47
2022-08-03T22:01:55.418Z,2.50
2022-08-03T22:04:50.767Z,2.50
2022-08-03T22:07:17.595Z,2.77
2022-08-03T22:09:51.147Z,2.70
2022-08-03T22:12:22.551Z,2.60
2022-08-03T22:15:00.368Z,2.37
2022-08-03T22:17:56.007Z,2.63
2022-08-03T22:20:19.235Z,2.80
2022-08-03T22:22:55.420Z,2.70
2022-08-03T22:25:28.801Z,2.60
2022-08-03T22:27:57.939Z,2.33
2022-08-03T22:30:26.319Z,2.90
2022-08-03T22:32:56.106Z,2.77
2022-08-03T22:35:26.629Z,2.80
2022-08-03T22:37:59.240Z,2.17
2022-08-03T22:40:28.666Z,2.77
2022-08-03T22:42:57.275Z,2.47
2022-08-03T22:46:07.189Z,2.60
2022-08-03T22:48:14.505Z,2.40
2022-08-03T22:50:44.989Z,2.40
2022-08-03T22:53:18.472Z,2.43
2022-08-03T22:55:47.054Z,2.70
2022-08-03T22:58:16.498Z,2.77
2022-08-03T23:00:48.388Z,3.87
2022-08-03T23:03:24.522Z,3.40
2022-08-03T23:06:01.185Z,3.67
2022-08-03T23:08:34.258Z,3.30
2022-08-03T23:11:08.488Z,2.63
2022-08-03T23:13:36.915Z,3.10
2022-08-03T23:16:07.396Z,2.80
2022-08-03T23:18:37.979Z,2.90
2022-08-03T23:21:11.222Z,2.93
2022-08-03T23:23:44.163Z,2.60
2022-08-03T23:26:13.238Z,2.30
2022-08-03T23:28:46.038Z,3.10
2022-08-03T23:31:15.595Z,2.93
2022-08-03T23:33:46.287Z,2.80
2022-08-03T23:36:31.188Z,2.60
2022-08-03T23:39:03.248Z,3.00
2022-08-03T23:41:31.673Z,2.60
2022-08-03T23:44:01.775Z,2.93
2022-08-03T23:46:31.790Z,2.87
2022-08-03T23:49:01.087Z,3.30
2022-08-03T23:51:39.920Z,3.03
2022-08-03T23:54:21.662Z,3.50
2022-08-03T23:57:00.649Z,3.00
2022-08-03T23:59:39.232Z,3.20
